createdAt,value
2023-10-29T00:01:45.940Z,80.99
2023-10-29T00:04:14.109Z,80.96
2023-10-29T00:06:42.290Z,80.82
2023-10-29T00:09:10.484Z,81.05
2023-10-29T00:11:38.601Z,80.96
2023-10-29T00:14:07.570Z,81.00
2023-10-29T00:16:35.804Z,81.06
2023-10-29T00:19:04.396Z,80.99
2023-10-29T00:21:35.785Z,81.01
2023-10-29T00:24:04.256Z,80.98
2023-10-29T00:26:32.511Z,80.92
2023-10-29T00:29:00.729Z,80.85
2023-10-29T00:31:28.964Z,80.96
2023-10-29T00:33:57.172Z,80.99
2023-10-29T00:36:25.338Z,80.96
2023-10-29T00:38:53.598Z,80.96
2023-10-29T00:41:21.870Z,81.07
2023-10-29T00:43:50.002Z,81.20
2023-10-29T00:46:18.331Z,81.31
2023-10-29T00:48:47.325Z,81.24
2023-10-29T00:51:15.849Z,81.37
2023-10-29T00:53:45.509Z,81.22
2023-10-29T00:56:15.201Z,81.40
2023-10-29T00:58:43.564Z,81.31
2023-10-29T01:01:11.795Z,81.37
2023-10-29T01:03:40.120Z,81.37
2023-10-29T01:06:09.586Z,81.44
2023-10-29T01:08:38.925Z,81.48
2023-10-29T01:11:08.336Z,81.55
2023-10-29T01:13:36.448Z,81.48
2023-10-29T01:16:06.482Z,81.53
2023-10-29T01:18:34.703Z,81.61
2023-10-29T01:21:02.930Z,81.62
2023-10-29T01:23:31.624Z,81.52
2023-10-29T01:26:00.769Z,81.68
2023-10-29T01:28:29.089Z,81.60
2023-10-29T01:30:57.454Z,81.58
2023-10-29T01:33:27.992Z,81.52
2023-10-29T01:35:57.448Z,81.42
2023-10-29T01:38:25.641Z,81.40
2023-10-29T01:40:53.951Z,81.50
2023-10-29T01:43:22.610Z,81.29
2023-10-29T01:45:50.734Z,81.39
2023-10-29T01:48:19.025Z,81.40
2023-10-29T01:50:48.705Z,81.33
2023-10-29T01:53:18.611Z,81.33
2023-10-29T01:55:46.782Z,81.31
2023-10-29T01:58:15.025Z,81.30
2023-10-29T02:00:43.153Z,81.27
2023-10-29T02:03:11.398Z,81.24
2023-10-29T02:05:39.820Z,81.19
2023-10-29T02:08:07.947Z,81.13
2023-10-29T02:10:36.045Z,80.95
2023-10-29T02:13:04.142Z,80.83
2023-10-29T02:15:32.276Z,80.85
2023-10-29T02:18:00.535Z,80.71
2023-10-29T02:20:28.946Z,80.72
2023-10-29T02:22:57.074Z,80.63
2023-10-29T02:25:25.212Z,80.70
2023-10-29T02:27:53.319Z,80.42
2023-10-29T02:30:21.432Z,80.46
2023-10-29T02:32:51.126Z,80.49
2023-10-29T02:35:19.276Z,80.49
2023-10-29T02:37:49.460Z,80.31
2023-10-29T02:40:17.688Z,80.16
2023-10-29T02:42:45.975Z,80.14
2023-10-29T02:45:14.128Z,80.27
2023-10-29T02:47:42.260Z,80.11
2023-10-29T02:50:10.663Z,79.91
2023-10-29T02:52:38.863Z,79.97
2023-10-29T02:55:08.296Z,80.02
2023-10-29T02:57:36.416Z,80.08
2023-10-29T03:00:05.535Z,79.93
2023-10-29T03:02:33.743Z,80.05
2023-10-29T03:05:02.354Z,80.10
2023-10-29T03:07:31.880Z,80.07
2023-10-29T03:10:00.137Z,80.00
2023-10-29T03:12:28.393Z,79.90
2023-10-29T03:14:56.718Z,80.00
2023-10-29T03:17:24.839Z,79.89
2023-10-29T03:19:53.063Z,79.84
2023-10-29T03:22:21.170Z,79.94
2023-10-29T03:24:49.687Z,79.82
2023-10-29T03:27:18.195Z,79.67
2023-10-29T03:29:46.403Z,79.67
2023-10-29T03:32:14.559Z,79.82
2023-10-29T03:34:42.675Z,79.81
2023-10-29T03:37:10.885Z,79.83
2023-10-29T03:39:38.985Z,79.80
2023-10-29T03:42:08.895Z,79.86
2023-10-29T03:44:37.035Z,79.76
2023-10-29T03:47:05.484Z,79.94
2023-10-29T03:49:33.867Z,79.94
2023-10-29T03:52:02.133Z,79.77
2023-10-29T03:54:30.238Z,79.78
2023-10-29T03:56:58.488Z,80.05
2023-10-29T03:59:26.971Z,79.96
2023-10-29T04:01:55.199Z,79.80
2023-10-29T04:04:23.441Z,79.92
2023-10-29T04:06:51.708Z,80.02
2023-10-29T04:09:20.129Z,79.96
2023-10-29T04:11:48.404Z,79.93
2023-10-29T04:14:17.505Z,80.04
2023-10-29T04:16:45.631Z,80.00
2023-10-29T04:19:13.761Z,80.02
2023-10-29T04:21:41.853Z,80.03
2023-10-29T04:24:10.164Z,80.19
2023-10-29T04:26:38.629Z,80.25
2023-10-29T04:29:06.849Z,80.27
2023-10-29T04:31:35.029Z,80.29
2023-10-29T04:34:03.268Z,80.52
2023-10-29T04:36:31.440Z,80.37
2023-10-29T04:38:59.622Z,80.42
2023-10-29T04:41:27.820Z,80.46
2023-10-29T04:43:55.997Z,80.57
2023-10-29T04:46:24.196Z,80.35
2023-10-29T04:48:52.446Z,80.40
2023-10-29T04:51:21.373Z,80.35
2023-10-29T04:53:49.474Z,80.29
2023-10-29T04:56:17.581Z,80.14
2023-10-29T04:58:45.692Z,80.11
2023-10-29T05:01:14.810Z,80.11
2023-10-29T05:03:43.056Z,79.90
2023-10-29T05:06:21.654Z,79.97
2023-10-29T05:08:51.132Z,79.65
2023-10-29T05:11:19.377Z,79.68
2023-10-29T05:13:47.554Z,79.62
2023-10-29T05:16:16.113Z,79.35
2023-10-29T05:18:44.230Z,79.39
2023-10-29T05:21:12.673Z,79.22
2023-10-29T05:23:40.892Z,79.26
2023-10-29T05:26:09.003Z,79.17
2023-10-29T05:28:37.339Z,79.08
2023-10-29T05:31:05.499Z,79.06
2023-10-29T05:33:33.724Z,79.10
2023-10-29T05:36:02.354Z,78.95
2023-10-29T05:38:30.945Z,78.88
2023-10-29T05:40:59.120Z,78.78
2023-10-29T05:43:27.203Z,78.70
2023-10-29T05:45:56.125Z,78.72
2023-10-29T05:48:24.329Z,78.57
2023-10-29T05:50:53.236Z,78.46
2023-10-29T05:53:21.442Z,78.50
2023-10-29T05:55:49.515Z,78.52
2023-10-29T05:58:17.604Z,78.43
2023-10-29T06:00:46.325Z,78.39
2023-10-29T06:03:14.622Z,78.41
2023-10-29T06:05:43.312Z,78.26
2023-10-29T06:08:11.552Z,78.11
2023-10-29T06:10:39.650Z,78.24
2023-10-29T06:13:07.832Z,78.23
2023-10-29T06:15:35.987Z,78.13
2023-10-29T06:18:05.616Z,78.12
2023-10-29T06:20:34.637Z,78.04
2023-10-29T06:23:02.762Z,78.05
2023-10-29T06:25:30.996Z,78.05
2023-10-29T06:27:59.082Z,78.05
2023-10-29T06:30:27.305Z,78.09
2023-10-29T06:32:55.662Z,77.92
2023-10-29T06:35:24.207Z,77.75
2023-10-29T06:37:53.757Z,77.67
2023-10-29T06:40:22.915Z,77.80
2023-10-29T06:42:51.047Z,77.54
2023-10-29T06:45:19.189Z,77.72
2023-10-29T06:47:48.135Z,77.68
2023-10-29T06:50:16.470Z,77.69
2023-10-29T06:52:44.681Z,77.60
2023-10-29T06:55:13.998Z,77.57
2023-10-29T06:57:42.213Z,77.62
2023-10-29T07:00:11.011Z,77.51
2023-10-29T07:02:39.495Z,77.40
2023-10-29T07:05:08.200Z,77.46
2023-10-29T07:07:36.408Z,77.46
2023-10-29T07:10:07.884Z,77.31
2023-10-29T07:12:36.075Z,77.25
2023-10-29T07:15:04.744Z,77.14
2023-10-29T07:17:33.038Z,77.11
2023-10-29T07:20:01.264Z,77.19
2023-10-29T07:22:30.530Z,77.30
2023-10-29T07:24:59.345Z,77.11
2023-10-29T07:27:27.665Z,77.25
2023-10-29T07:29:55.793Z,77.10
2023-10-29T07:32:24.409Z,77.06
2023-10-29T07:34:52.593Z,76.94
2023-10-29T07:37:20.814Z,76.89
2023-10-29T07:39:48.943Z,76.79
2023-10-29T07:42:17.129Z,76.92
2023-10-29T07:44:45.226Z,76.90
2023-10-29T07:47:13.924Z,77.17
2023-10-29T07:49:43.616Z,77.41
2023-10-29T07:52:11.802Z,77.51
2023-10-29T07:54:41.424Z,77.68
2023-10-29T07:57:09.645Z,77.50
2023-10-29T07:59:37.870Z,77.32
2023-10-29T08:02:07.059Z,77.32
2023-10-29T08:04:35.309Z,77.39
2023-10-29T08:07:05.121Z,77.47
2023-10-29T08:09:33.877Z,77.71
2023-10-29T08:12:02.031Z,77.75
2023-10-29T08:14:30.287Z,77.84
2023-10-29T08:16:58.626Z,77.80
2023-10-29T08:19:28.297Z,77.89
2023-10-29T08:21:56.431Z,78.01
2023-10-29T08:24:24.601Z,78.00
2023-10-29T08:26:52.760Z,78.06
2023-10-29T08:29:20.888Z,78.10
2023-10-29T08:31:49.044Z,78.16
2023-10-29T08:34:17.414Z,78.09
2023-10-29T08:36:45.579Z,78.32
2023-10-29T08:39:15.379Z,78.15
2023-10-29T08:41:43.493Z,78.36
2023-10-29T08:44:11.725Z,78.42
2023-10-29T08:46:40.170Z,78.49
2023-10-29T08:49:08.882Z,78.49
2023-10-29T08:51:37.013Z,78.50
2023-10-29T08:54:05.589Z,78.63
2023-10-29T08:56:35.168Z,78.44
2023-10-29T08:59:05.587Z,78.49
2023-10-29T09:01:34.103Z,78.63
2023-10-29T09:04:05.323Z,78.96
2023-10-29T09:06:34.018Z,78.91
2023-10-29T09:09:02.304Z,79.00
2023-10-29T09:11:30.491Z,79.00
2023-10-29T09:13:59.136Z,79.23
2023-10-29T09:16:27.359Z,79.26
2023-10-29T09:18:55.897Z,79.13
2023-10-29T09:21:24.131Z,79.34
2023-10-29T09:23:52.288Z,79.46
2023-10-29T09:26:20.468Z,79.40
2023-10-29T09:28:49.304Z,79.38
2023-10-29T09:31:18.842Z,79.26
2023-10-29T09:33:48.387Z,79.35
2023-10-29T09:36:17.886Z,79.47
2023-10-29T09:38:47.050Z,79.58
2023-10-29T09:41:21.682Z,79.69
2023-10-29T09:43:53.411Z,79.86
2023-10-29T09:46:25.342Z,80.03
2023-10-29T09:48:55.047Z,80.13
2023-10-29T09:51:23.537Z,80.18
2023-10-29T09:53:55.769Z,80.36
2023-10-29T09:56:25.494Z,80.27
2023-10-29T09:58:53.843Z,80.36
2023-10-29T10:01:22.172Z,80.34
2023-10-29T10:03:50.459Z,80.38
2023-10-29T10:06:20.837Z,80.47
2023-10-29T10:08:57.419Z,80.53
2023-10-29T10:11:25.942Z,80.44
2023-10-29T10:13:54.272Z,80.52
2023-10-29T10:16:22.670Z,80.55
2023-10-29T10:18:56.395Z,80.68
2023-10-29T10:21:26.395Z,80.59
2023-10-29T10:23:58.992Z,80.70
2023-10-29T10:26:30.240Z,80.89
2023-10-29T10:29:00.901Z,80.76
2023-10-29T10:31:30.424Z,80.95
2023-10-29T10:34:12.707Z,81.14
2023-10-29T10:36:50.523Z,81.25
2023-10-29T10:39:23.925Z,81.34
2023-10-29T10:41:52.406Z,81.44
2023-10-29T10:44:21.431Z,81.49
2023-10-29T10:46:52.450Z,81.63
2023-10-29T10:49:21.392Z,81.63
2023-10-29T10:51:57.362Z,81.63
2023-10-29T10:54:26.532Z,81.82
2023-10-29T10:56:57.334Z,81.70
2023-10-29T10:59:25.610Z,81.90
2023-10-29T11:01:53.835Z,82.03
2023-10-29T11:04:25.186Z,82.01
2023-10-29T11:06:54.410Z,82.03
2023-10-29T11:09:24.294Z,82.12
2023-10-29T11:11:55.984Z,82.22
2023-10-29T11:14:25.481Z,82.20
2023-10-29T11:16:57.468Z,82.17
2023-10-29T11:19:48.541Z,82.35
2023-10-29T11:22:30.472Z,82.24
2023-10-29T11:25:10.561Z,82.43
2023-10-29T11:27:40.608Z,82.56
2023-10-29T11:30:15.967Z,82.72
2023-10-29T11:32:45.673Z,82.65
2023-10-29T11:35:20.828Z,82.90
2023-10-29T11:37:51.852Z,83.15
2023-10-29T11:40:33.644Z,83.24
2023-10-29T11:43:20.218Z,83.26
2023-10-29T11:46:02.356Z,83.48
2023-10-29T11:48:31.431Z,83.60
2023-10-29T11:51:10.324Z,83.58
2023-10-29T11:53:39.311Z,83.80
2023-10-29T11:56:11.698Z,83.81
2023-10-29T11:58:40.179Z,83.95
2023-10-29T12:01:08.650Z,84.12
2023-10-29T12:03:37.063Z,84.06
2023-10-29T12:06:05.486Z,84.18
2023-10-29T12:08:33.865Z,84.29
2023-10-29T12:11:02.168Z,84.30
2023-10-29T12:13:43.332Z,84.28
2023-10-29T12:16:13.430Z,84.49
2023-10-29T12:18:43.001Z,84.52
2023-10-29T12:21:11.902Z,84.63
2023-10-29T12:23:40.389Z,84.57
2023-10-29T12:26:12.009Z,84.61
2023-10-29T12:28:40.593Z,84.71
2023-10-29T12:31:26.048Z,84.93
2023-10-29T12:33:59.016Z,84.89
2023-10-29T12:36:28.119Z,84.82
2023-10-29T12:38:56.381Z,85.02
2023-10-29T12:41:28.870Z,85.03
2023-10-29T12:43:58.785Z,85.13
2023-10-29T12:46:27.793Z,85.23
2023-10-29T12:49:06.904Z,85.28
2023-10-29T12:51:42.989Z,85.44
2023-10-29T12:54:22.912Z,85.47
2023-10-29T12:56:52.246Z,85.54
2023-10-29T12:59:21.844Z,85.48
2023-10-29T13:01:55.854Z,85.72
2023-10-29T13:04:26.244Z,85.77
2023-10-29T13:06:56.759Z,85.90
2023-10-29T13:09:26.787Z,85.77
2023-10-29T13:11:56.063Z,85.94
2023-10-29T13:14:24.267Z,85.95
2023-10-29T13:16:56.787Z,85.94
2023-10-29T13:19:25.885Z,86.05
2023-10-29T13:21:54.242Z,86.22
2023-10-29T13:24:23.931Z,86.36
2023-10-29T13:26:53.837Z,86.24
2023-10-29T13:29:22.465Z,86.28
2023-10-29T13:31:51.201Z,86.43
2023-10-29T13:34:19.347Z,86.55
2023-10-29T13:36:47.468Z,86.49
2023-10-29T13:39:19.664Z,86.34
2023-10-29T13:41:49.811Z,86.46
2023-10-29T13:44:18.736Z,86.55
2023-10-29T13:46:47.066Z,86.81
2023-10-29T13:49:15.737Z,86.60
2023-10-29T13:51:46.181Z,86.49
2023-10-29T13:54:14.548Z,86.64
2023-10-29T13:56:42.881Z,86.71
2023-10-29T13:59:11.158Z,86.62
2023-10-29T14:01:41.091Z,86.65
2023-10-29T14:04:09.756Z,86.60
2023-10-29T14:06:38.033Z,86.70
2023-10-29T14:09:06.763Z,86.74
2023-10-29T14:11:35.681Z,86.91
2023-10-29T14:14:04.427Z,86.82
2023-10-29T14:16:41.107Z,86.74
2023-10-29T14:19:10.816Z,86.89
2023-10-29T14:21:39.211Z,86.79
2023-10-29T14:24:08.822Z,86.81
2023-10-29T14:26:37.766Z,86.85
2023-10-29T14:29:06.178Z,86.84
2023-10-29T14:31:36.162Z,86.88
2023-10-29T14:34:05.187Z,86.92
2023-10-29T14:36:33.396Z,86.94
2023-10-29T14:39:01.561Z,86.93
2023-10-29T14:41:29.862Z,86.87
2023-10-29T14:43:58.054Z,86.90
2023-10-29T14:46:26.165Z,86.86
2023-10-29T14:48:54.480Z,86.82
2023-10-29T14:51:22.636Z,86.85
2023-10-29T14:53:50.949Z,86.92
2023-10-29T14:56:22.469Z,86.84
2023-10-29T14:58:50.758Z,86.78
2023-10-29T15:01:19.026Z,86.89
2023-10-29T15:03:47.992Z,86.67
2023-10-29T15:06:16.502Z,86.77
2023-10-29T15:08:44.666Z,86.59
2023-10-29T15:11:14.944Z,86.60
2023-10-29T15:13:48.722Z,86.52
2023-10-29T15:16:17.478Z,86.53
2023-10-29T15:18:45.948Z,86.46
2023-10-29T15:21:19.099Z,86.50
2023-10-29T15:23:47.349Z,86.54
2023-10-29T15:26:22.444Z,86.56
2023-10-29T15:28:51.131Z,86.60
2023-10-29T15:31:19.335Z,86.58
2023-10-29T15:33:47.811Z,86.64
2023-10-29T15:36:16.496Z,86.62
2023-10-29T15:38:45.030Z,86.58
2023-10-29T15:41:14.047Z,86.59
2023-10-29T15:43:42.172Z,86.54
2023-10-29T15:46:10.490Z,86.65
2023-10-29T15:48:38.871Z,86.76
2023-10-29T15:51:09.883Z,86.71
2023-10-29T15:53:38.474Z,86.81
2023-10-29T15:56:10.983Z,86.80
2023-10-29T15:58:39.291Z,86.72
2023-10-29T16:01:16.662Z,86.75
2023-10-29T16:03:48.898Z,86.87
2023-10-29T16:06:17.212Z,86.80
2023-10-29T16:08:45.374Z,86.78
2023-10-29T16:11:23.514Z,86.90
2023-10-29T16:13:51.975Z,86.99
2023-10-29T16:16:23.423Z,86.98
2023-10-29T16:18:53.716Z,87.00
2023-10-29T16:21:21.985Z,87.07
2023-10-29T16:23:50.165Z,86.90
2023-10-29T16:26:18.585Z,86.97
2023-10-29T16:28:47.117Z,86.75
2023-10-29T16:31:19.173Z,86.99
2023-10-29T16:33:47.960Z,86.99
2023-10-29T16:36:17.626Z,87.00
2023-10-29T16:38:46.750Z,87.06
2023-10-29T16:41:17.231Z,86.97
2023-10-29T16:43:49.349Z,86.92
2023-10-29T16:46:19.315Z,86.95
2023-10-29T16:48:48.647Z,86.92
2023-10-29T16:51:17.119Z,86.90
2023-10-29T16:53:45.712Z,86.85
2023-10-29T16:56:14.316Z,86.77
2023-10-29T16:58:43.883Z,86.64
2023-10-29T17:01:13.846Z,86.69
2023-10-29T17:03:43.280Z,86.60
2023-10-29T17:06:11.996Z,86.40
2023-10-29T17:08:40.449Z,86.39
2023-10-29T17:11:08.973Z,86.55
2023-10-29T17:13:37.444Z,86.55
2023-10-29T17:16:06.256Z,86.52
2023-10-29T17:18:35.549Z,86.40
2023-10-29T17:21:04.493Z,86.46
2023-10-29T17:23:33.089Z,86.28
2023-10-29T17:26:01.669Z,86.31
2023-10-29T17:28:30.084Z,86.12
2023-10-29T17:30:58.698Z,86.18
2023-10-29T17:33:27.178Z,86.04
2023-10-29T17:35:55.690Z,86.00
2023-10-29T17:38:24.159Z,85.99
2023-10-29T17:40:52.650Z,85.92
2023-10-29T17:43:23.211Z,85.83
2023-10-29T17:45:53.398Z,85.76
2023-10-29T17:48:22.121Z,85.64
2023-10-29T17:50:58.183Z,85.47
2023-10-29T17:53:26.869Z,85.37
2023-10-29T17:55:56.118Z,85.38
2023-10-29T17:58:24.664Z,85.15
2023-10-29T18:00:53.406Z,85.16
2023-10-29T18:03:21.883Z,85.09
2023-10-29T18:05:50.271Z,84.86
2023-10-29T18:08:18.709Z,84.84
2023-10-29T18:10:47.846Z,84.69
2023-10-29T18:13:16.499Z,84.72
2023-10-29T18:15:44.855Z,84.60
2023-10-29T18:18:13.994Z,84.54
2023-10-29T18:20:44.299Z,84.66
2023-10-29T18:23:12.938Z,84.62
2023-10-29T18:25:41.337Z,84.67
2023-10-29T18:28:09.976Z,84.58
2023-10-29T18:30:38.372Z,84.43
2023-10-29T18:33:06.968Z,84.42
2023-10-29T18:35:35.378Z,84.36
2023-10-29T18:38:05.529Z,84.55
2023-10-29T18:40:36.359Z,84.33
2023-10-29T18:43:04.840Z,84.50
2023-10-29T18:45:33.325Z,84.36
2023-10-29T18:48:01.895Z,84.48
2023-10-29T18:50:30.589Z,84.24
2023-10-29T18:52:58.954Z,84.28
2023-10-29T18:55:27.273Z,84.32
2023-10-29T18:57:55.764Z,84.28
2023-10-29T19:00:24.836Z,84.27
2023-10-29T19:02:53.720Z,84.26
2023-10-29T19:05:22.430Z,84.31
2023-10-29T19:07:50.897Z,84.30
2023-10-29T19:10:19.669Z,84.30
2023-10-29T19:12:48.134Z,84.18
2023-10-29T19:15:19.137Z,84.24
2023-10-29T19:17:47.786Z,84.24
2023-10-29T19:20:17.158Z,84.19
2023-10-29T19:22:45.600Z,84.00
2023-10-29T19:25:14.119Z,84.23
2023-10-29T19:27:42.609Z,84.22
2023-10-29T19:30:11.502Z,84.09
2023-10-29T19:32:42.050Z,84.30
2023-10-29T19:35:11.229Z,84.22
2023-10-29T19:37:40.502Z,84.11
2023-10-29T19:40:09.827Z,84.25
2023-10-29T19:42:40.192Z,84.40
2023-10-29T19:45:09.353Z,84.20
2023-10-29T19:47:37.759Z,84.10
2023-10-29T19:50:07.884Z,84.26
2023-10-29T19:52:36.315Z,84.23
2023-10-29T19:55:05.301Z,84.35
2023-10-29T19:57:34.248Z,84.16
2023-10-29T20:00:02.741Z,84.07
2023-10-29T20:02:32.904Z,84.13
2023-10-29T20:05:01.467Z,84.16
2023-10-29T20:07:30.015Z,84.14
2023-10-29T20:09:58.395Z,84.23
2023-10-29T20:12:27.297Z,84.14
2023-10-29T20:14:55.720Z,84.08
2023-10-29T20:17:24.097Z,84.02
2023-10-29T20:19:52.447Z,84.02
2023-10-29T20:22:20.938Z,83.99
2023-10-29T20:24:54.802Z,83.94
2023-10-29T20:27:23.271Z,83.99
2023-10-29T20:29:51.505Z,83.88
2023-10-29T20:32:20.199Z,83.84
2023-10-29T20:34:48.528Z,83.90
2023-10-29T20:37:16.734Z,83.90
2023-10-29T20:39:45.023Z,83.75
2023-10-29T20:42:13.458Z,83.80
2023-10-29T20:44:41.744Z,83.76
2023-10-29T20:47:11.153Z,83.76
2023-10-29T20:49:39.574Z,83.65
2023-10-29T20:52:07.940Z,83.67
2023-10-29T20:54:38.285Z,83.63
2023-10-29T20:57:06.507Z,83.59
2023-10-29T20:59:34.678Z,83.63
2023-10-29T21:02:03.027Z,83.58
2023-10-29T21:04:31.358Z,83.62
2023-10-29T21:06:59.701Z,83.76
2023-10-29T21:09:28.128Z,83.63
2023-10-29T21:11:56.654Z,83.74
2023-10-29T21:14:24.940Z,83.71
2023-10-29T21:16:53.180Z,83.78
2023-10-29T21:19:27.070Z,83.79
2023-10-29T21:21:58.839Z,83.79
2023-10-29T21:24:28.046Z,83.90
2023-10-29T21:26:57.074Z,83.96
2023-10-29T21:29:25.804Z,83.87
2023-10-29T21:31:54.332Z,83.89
2023-10-29T21:34:22.491Z,83.83
2023-10-29T21:36:50.808Z,83.98
2023-10-29T21:39:19.063Z,83.98
2023-10-29T21:41:47.507Z,83.97
2023-10-29T21:44:15.969Z,83.92
2023-10-29T21:46:46.191Z,83.99
2023-10-29T21:49:14.830Z,83.99
2023-10-29T21:51:42.964Z,83.87
2023-10-29T21:54:11.112Z,83.97
2023-10-29T21:56:39.215Z,84.08
2023-10-29T21:59:07.499Z,84.01
2023-10-29T22:01:35.808Z,84.10
2023-10-29T22:04:04.644Z,84.12
2023-10-29T22:06:34.040Z,84.13
2023-10-29T22:09:02.726Z,84.12
2023-10-29T22:11:30.905Z,84.08
2023-10-29T22:13:59.018Z,84.13
2023-10-29T22:16:27.207Z,84.20
2023-10-29T22:18:55.495Z,84.24
2023-10-29T22:21:23.621Z,84.29
2023-10-29T22:23:51.870Z,84.32
2023-10-29T22:26:20.142Z,84.29
2023-10-29T22:28:48.322Z,84.15
2023-10-29T22:31:16.787Z,84.26
2023-10-29T22:33:44.937Z,84.37
2023-10-29T22:36:13.222Z,84.37
2023-10-29T22:38:41.399Z,84.47
2023-10-29T22:41:16.289Z,84.43
2023-10-29T22:43:45.103Z,84.31
2023-10-29T22:46:21.586Z,84.27
2023-10-29T22:48:51.236Z,84.34
2023-10-29T22:51:19.966Z,84.35
2023-10-29T22:53:48.231Z,84.41
2023-10-29T22:56:16.341Z,84.52
2023-10-29T22:58:44.446Z,84.58
2023-10-29T23:01:12.685Z,84.59
2023-10-29T23:03:41.044Z,84.63
2023-10-29T23:06:09.563Z,84.71
2023-10-29T23:08:37.807Z,84.82
2023-10-29T23:11:07.527Z,84.93
2023-10-29T23:13:35.638Z,85.10
2023-10-29T23:16:04.063Z,85.21
2023-10-29T23:18:32.236Z,85.18
2023-10-29T23:21:00.386Z,85.48
2023-10-29T23:23:28.689Z,85.53
2023-10-29T23:25:56.861Z,85.49
2023-10-29T23:28:37.058Z,85.78
2023-10-29T23:31:10.061Z,85.79
2023-10-29T23:33:38.761Z,85.87
2023-10-29T23:36:07.442Z,85.88
2023-10-29T23:38:35.605Z,85.83
2023-10-29T23:41:03.987Z,85.88
2023-10-29T23:43:32.243Z,85.81
2023-10-29T23:46:00.534Z,85.72
2023-10-29T23:48:29.092Z,85.68
2023-10-29T23:50:57.348Z,85.73
2023-10-29T23:53:25.459Z,85.69
2023-10-29T23:55:53.576Z,85.70
2023-10-29T23:58:21.963Z,85.80
